Observations for AMSTERDAM SCHIPHOL, Netherlands (EHAM)

EHAM 221455Z 35010KT 320V020 9999 FEW043 13/05 Q1034 NOSIG  
EHAM 221425Z 33011KT 9999 SCT040 13/05 Q1034 NOSIG  
EHAM 221355Z 33010KT 290V020 9999 FEW042 14/05 Q1033 NOSIG  
EHAM 221325Z 36011KT 330V040 9999 FEW038 15/06 Q1033 NOSIG  
EHAM 221255Z 35011KT 320V030 9999 FEW038 14/06 Q1033 NOSIG  
EHAM 221225Z 35012KT 310V030 9999 SCT029 14/06 Q1033 NOSIG  
EHAM 221155Z 35010KT 320V040 9999 SCT029 14/07 Q1033 NOSIG  
EHAM 221125Z 34010KT 310V010 9999 SCT028 15/08 Q1033 NOSIG  
EHAM 221055Z 35012KT 310V010 9999 SCT028 14/08 Q1033 NOSIG  
EHAM 221025Z 34011KT 310V020 9999 FEW028 SCT042 13/08 Q1033 NOSIG   
EHAM 220955Z 35009KT 320V050 9999 FEW028 SCT042 14/08 Q1033 NOSIG   
EHAM 220925Z 34009KT 310V010 9999 FEW028 BKN039 14/08 Q1033 NOSIG   
EHAM 220855Z 35009KT 320V030 9999 FEW024 SCT038 14/08 Q1032 NOSIG   
EHAM 220825Z 35008KT 310V020 9999 FEW031 SCT037 13/08 Q1032 NOSIG   
EHAM 220755Z 36007KT 320V030 9999 FEW018 BKN037 13/08 Q1032 NOSIG   
EHAM 220725Z 36009KT 330V030 9999 FEW018 SCT037 12/07 Q1031 NOSIG   
EHAM 220655Z 35009KT 320V020 9999 FEW018 SCT038 12/08 Q1031 NOSIG   
EHAM 220625Z 35007KT 320V030 9999 FEW018 BKN037 12/09 Q1030 NOSIG   
EHAM 220555Z 35007KT 290V030 9999 FEW012 SCT034 12/10 Q1030 NOSIG   
EHAM 220525Z 01007KT 330V040 9999 FEW009 SCT012 BKN022 12/11 Q1029 NOSIG
EHAM 220455Z 35008KT 9999 -DZ FEW009 SCT017 BKN023 13/11 Q1029 NOSIG
EHAM 220425Z 35008KT 310V020 9999 FEW012 SCT020 BKN028 13/11 Q1029 NOSIG
EHAM 220355Z 35007KT 320V030 9999 FEW012 BKN020 13/11 Q1028 NOSIG   
EHAM 220325Z 36009KT 9999 FEW012 SCT019 BKN040 13/12 Q1028 NOSIG
EHAM 220255Z 35008KT 320V030 9999 FEW012 BKN040 13/12 Q1028 NOSIG   
EHAM 220225Z 35011KT 6000 -DZ SCT008 BKN022 13/12 Q1027 BECMG 9999 NSW  
EHAM 220155Z 34009KT 310V010 9999 FEW008 SCT016 BKN025 13/12 Q1027 NOSIG
EHAM 220125Z 35011KT 320V020 9999 FEW008 SCT012 BKN025 14/13 Q1027 NOSIG
EHAM 220055Z 36009KT 330V030 9999 SCT012 BKN021 14/13 Q1027 NOSIG   
EHAM 220025Z 33004KT 5000 -DZ SCT003 BKN010 13/13 Q1027 BECMG 9999 NSW BKN020   
EHAM 212355Z 31003KT 5000 2200NW -DZ FEW006 BKN012 13/11 Q1027 TEMPO 3500 BKN006
EHAM 212325Z VRB02KT 8000 FEW011 BKN016 12/11 Q1026 TEMPO 6000 BKN010   
EHAM 212255Z VRB01KT 8000 FEW011 SCT016 BKN020 11/10 Q1026 BECMG 30008KT BKN014 TEMPO 6000  
EHAM 212225Z 25004KT 8000 FEW011 SCT020 12/10 Q1026 BECMG 30008KT 6000 BKN014   
EHAM 212155Z 20004KT 9000 FEW011 SCT016 BKN021 12/10 Q1026 BECMG 30008KT 6000 BKN014
EHAM 212125Z 20005KT 9000 FEW013 10/08 Q1026 BECMG 7000 
EHAM 212055Z 22006KT 9999 FEW013 12/09 Q1026 NOSIG  
EHAM 212025Z 23007KT 9999 FEW013 13/09 Q1026 NOSIG  
EHAM 211955Z 22008KT 9999 SCT042 14/09 Q1026 NOSIG  
EHAM 211925Z 21007KT 190V250 9999 FEW036 BKN042 14/09 Q1026 NOSIG   
EHAM 211855Z 22006KT CAVOK 13/10 Q1026 NOSIG
EHAM 211825Z 20005KT CAVOK 11/08 Q1026 NOSIG
EHAM 211755Z 19006KT CAVOK 12/08 Q1026 NOSIG
EHAM 211725Z 20007KT CAVOK 13/08 Q1026 NOSIG
EHAM 211655Z 20008KT 9999 FEW045 14/09 Q1026 NOSIG  
EHAM 211625Z 19008KT 9999 SCT042 15/09 Q1025 NOSIG  
EHAM 211555Z 19007KT 9999 BKN042 15/09 Q1026 NOSIG  
EHAM 211525Z 20008KT 170V230 9999 BKN040 15/09 Q1026 NOSIG  
EHAM 211455Z 19009KT 9000 BKN038 16/09 Q1026 NOSIG  
EHAM 211425Z 19009KT 9999 BKN040 16/09 Q1026 NOSIG